PWSweather.com
Personal Weather Stations
Station Observations
KMNHACKE9
Hiram Hill, Hiram Twp., Hackensack, MN 56452

Hiram Hill, Hiram Twp.Hackensack, MN 56452

Lat: 46.934228, Lon: -94.585965

Elevation: 1414

Station Type: Rainwise MK-III-LR

Latest ConditionsUpdated 8:34:00 PM CST Saturday, Dec 15, 2018
Currently Today's Max Today's Min Today's Average
Temperature 37.1°F2.8°C 47.4°F8.6°C 14.8°F-9.6°C 30.7°F-0.7°C
Dew Point 24.9°F-3.9°C 29.6°F-1.3°C 13.4°F-10.3°C 21.8°F-5.7°C
Winds 3.7 mph SSW6.0 kmh SSW 7.1 mph -11.4 kmh - - 2.5 mph 4.0 kmh
Wind Gusts 7.8 mph12.6 kmh 14.2 mph22.9 kmh - -
Humidity 61% 98% 36% 74%
Pressure 29.88 in1011.9 mb 30.09 in1019.0 mb 29.82 in1009.8 mb -
Precipitation - 0.02 in0.5 mm - -
Hour Temp Dew Point Humidity Winds Wind Gusts Pressure Precip Precip Rate Daily Precip Total
08:34 PM 37.1°F2.8°C 24.9°F-3.9°C 61% 3.7 mph SSW6.0 kmh SSW 7.8 mph12.6 kmh 29.88 in1011.9 mb 0.00 in0.0 mm 0.00 in0.0 mm 0.02 in0.5 mm
08:29 PM 37.1°F2.8°C 24.5°F-4.2°C 60% 4.9 mph WSW7.9 kmh WSW 9.8 mph15.8 kmh 29.87 in1011.5 mb 0.00 in0.0 mm 0.00 in0.0 mm 0.02 in0.5 mm
08:24 PM 37.2°F2.9°C 24.2°F-4.3°C 59% 5.0 mph SSW8.0 kmh SSW 9.8 mph15.8 kmh 29.87 in1011.5 mb 0.00 in0.0 mm 0.00 in0.0 mm 0.02 in0.5 mm
08:19 PM 37.3°F2.9°C 23.9°F-4.5°C 58% 3.1 mph SSW5.0 kmh SSW 7.1 mph11.4 kmh 29.87 in1011.5 mb 0.00 in0.0 mm 0.00 in0.0 mm 0.02 in0.5 mm
08:14 PM 37.6°F3.1°C 24.2°F-4.3°C 58% 4.4 mph SSW7.1 kmh SSW 8.9 mph14.3 kmh 29.87 in1011.5 mb 0.00 in0.0 mm 0.00 in0.0 mm 0.02 in0.5 mm
08:09 PM 37.7°F3.2°C 23.9°F-4.5°C 57% 4.7 mph SSW7.6 kmh SSW 9.4 mph15.1 kmh 29.87 in1011.5 mb 0.00 in0.0 mm 0.00 in0.0 mm 0.02 in0.5 mm
08:04 PM 38.0°F3.3°C 24.1°F-4.4°C 57% 4.6 mph S7.4 kmh S 11.6 mph18.7 kmh 29.87 in1011.5 mb 0.00 in0.0 mm 0.00 in0.0 mm 0.02 in0.5 mm
07:59 PM 38.2°F3.4°C 23.9°F-4.5°C 56% 4.7 mph S7.6 kmh S 10.4 mph16.7 kmh 29.87 in1011.5 mb 0.00 in0.0 mm 0.00 in0.0 mm 0.02 in0.5 mm
07:54 PM 38.3°F3.5°C 23.6°F-4.7°C 55% 4.1 mph SW6.6 kmh SW 9.4 mph15.1 kmh 29.87 in1011.5 mb 0.00 in0.0 mm 0.00 in0.0 mm 0.02 in0.5 mm
07:49 PM 38.6°F3.7°C 23.4°F-4.8°C 54% 5.7 mph S9.2 kmh S 9.6 mph15.4 kmh 29.87 in1011.5 mb 0.00 in0.0 mm 0.00 in0.0 mm 0.02 in0.5 mm
07:44 PM 38.8°F3.8°C 23.2°F-4.9°C 53% 5.7 mph SSW9.2 kmh SSW 11.6 mph18.7 kmh 29.86 in1011.2 mb 0.00 in0.0 mm 0.00 in0.0 mm 0.02 in0.5 mm
07:39 PM 39.1°F3.9°C 23.0°F-5.0°C 52% 5.7 mph SSW9.2 kmh SSW 14.2 mph22.9 kmh 29.86 in1011.2 mb 0.00 in0.0 mm 0.00 in0.0 mm 0.02 in0.5 mm
07:34 PM 39.3°F4.1°C 22.7°F-5.2°C 51% 4.5 mph SSW7.2 kmh SSW 7.5 mph12.1 kmh 29.86 in1011.2 mb 0.00 in0.0 mm 0.00 in0.0 mm 0.02 in0.5 mm
07:29 PM 39.6°F4.2°C 22.5°F-5.3°C 50% 5.1 mph SSW8.2 kmh SSW 10.2 mph16.4 kmh 29.85 in1010.8 mb 0.00 in0.0 mm 0.00 in0.0 mm 0.02 in0.5 mm
07:24 PM 39.7°F4.3°C 22.1°F-5.5°C 49% 5.4 mph S8.7 kmh S 10.3 mph16.6 kmh 29.85 in1010.8 mb 0.00 in0.0 mm 0.00 in0.0 mm 0.02 in0.5 mm
07:19 PM 39.7°F4.3°C 22.1°F-5.5°C 49% 7.1 mph S11.4 kmh S 12.4 mph20.0 kmh 29.85 in1010.8 mb 0.00 in0.0 mm 0.00 in0.0 mm 0.02 in0.5 mm
07:14 PM 39.7°F4.3°C 22.1°F-5.5°C 49% 5.9 mph S9.5 kmh S 9.5 mph15.3 kmh 29.85 in1010.8 mb 0.00 in0.0 mm 0.00 in0.0 mm 0.02 in0.5 mm
07:09 PM 39.7°F4.3°C 21.6°F-5.8°C 48% 6.4 mph SSE10.3 kmh SSE 12.0 mph19.3 kmh 29.84 in1010.5 mb 0.00 in0.0 mm 0.00 in0.0 mm 0.02 in0.5 mm
07:04 PM 39.7°F4.3°C 21.6°F-5.8°C 48% 4.9 mph S7.9 kmh S 8.8 mph14.2 kmh 29.85 in1010.8 mb 0.00 in0.0 mm 0.00 in0.0 mm 0.02 in0.5 mm
06:59 PM 39.6°F4.2°C 21.1°F-6.1°C 47% 6.3 mph S10.1 kmh S 11.5 mph18.5 kmh 29.85 in1010.8 mb 0.00 in0.0 mm 0.00 in0.0 mm 0.02 in0.5 mm
06:54 PM 39.8°F4.3°C 20.7°F-6.3°C 46% 5.0 mph S8.0 kmh S 11.1 mph17.9 kmh 29.86 in1011.2 mb 0.00 in0.0 mm 0.00 in0.0 mm 0.02 in0.5 mm
06:49 PM 39.9°F4.4°C 20.8°F-6.2°C 46% 3.7 mph SSE6.0 kmh SSE 6.5 mph10.5 kmh 29.86 in1011.2 mb 0.00 in0.0 mm 0.00 in0.0 mm 0.02 in0.5 mm
06:44 PM 39.8°F4.3°C 20.2°F-6.6°C 45% 5.7 mph S9.2 kmh S 10.8 mph17.4 kmh 29.86 in1011.2 mb 0.00 in0.0 mm 0.00 in0.0 mm 0.02 in0.5 mm
06:39 PM 39.8°F4.3°C 20.7°F-6.3°C 46% 4.4 mph S7.1 kmh S 9.4 mph15.1 kmh 29.85 in1010.8 mb 0.00 in0.0 mm 0.00 in0.0 mm 0.02 in0.5 mm
06:34 PM 39.8°F4.3°C 20.2°F-6.6°C 45% 5.8 mph S9.3 kmh S 9.7 mph15.6 kmh 29.85 in1010.8 mb 0.00 in0.0 mm 0.00 in0.0 mm 0.02 in0.5 mm
06:29 PM 39.8°F4.3°C 20.2°F-6.6°C 45% 4.1 mph SSW6.6 kmh SSW 7.1 mph11.4 kmh 29.84 in1010.5 mb 0.00 in0.0 mm 0.00 in0.0 mm 0.02 in0.5 mm
06:24 PM 40.1°F4.5°C 20.5°F-6.4°C 45% 4.3 mph S6.9 kmh S 7.2 mph11.6 kmh 29.82 in1009.8 mb 0.00 in0.0 mm 0.00 in0.0 mm 0.02 in0.5 mm
06:19 PM 40.2°F4.6°C 20.6°F-6.3°C 45% 4.9 mph SE7.9 kmh SE 9.1 mph14.6 kmh 29.83 in1010.2 mb 0.00 in0.0 mm 0.00 in0.0 mm 0.02 in0.5 mm
06:14 PM 40.2°F4.6°C 20.6°F-6.3°C 45% 5.2 mph SSE8.4 kmh SSE 11.0 mph17.7 kmh 29.84 in1010.5 mb 0.00 in0.0 mm 0.00 in0.0 mm 0.02 in0.5 mm
06:09 PM 40.0°F4.4°C 20.4°F-6.4°C 45% 4.4 mph SE7.1 kmh SE 9.2 mph14.8 kmh 29.83 in1010.2 mb 0.00 in0.0 mm 0.00 in0.0 mm 0.02 in0.5 mm
06:04 PM 39.8°F4.3°C 20.2°F-6.6°C 45% 4.4 mph S7.1 kmh S 7.9 mph12.7 kmh 29.84 in1010.5 mb 0.00 in0.0 mm 0.00 in0.0 mm 0.02 in0.5 mm
05:59 PM 39.8°F4.3°C 19.7°F-6.8°C 44% 3.7 mph SE6.0 kmh SE 6.4 mph10.3 kmh 29.85 in1010.8 mb 0.00 in0.0 mm 0.00 in0.0 mm 0.02 in0.5 mm
05:54 PM 39.3°F4.1°C 19.8°F-6.8°C 45% 3.5 mph SE5.6 kmh SE 6.5 mph10.5 kmh 29.85 in1010.8 mb 0.00 in0.0 mm 0.00 in0.0 mm 0.02 in0.5 mm
05:49 PM 38.6°F3.7°C 20.1°F-6.6°C 47% 4.7 mph SSE7.6 kmh SSE 8.2 mph13.2 kmh 29.86 in1011.2 mb 0.00 in0.0 mm 0.00 in0.0 mm 0.02 in0.5 mm
05:44 PM 38.2°F3.4°C 20.7°F-6.3°C 49% 3.6 mph SSE5.8 kmh SSE 6.4 mph10.3 kmh 29.86 in1011.2 mb 0.00 in0.0 mm 0.00 in0.0 mm 0.02 in0.5 mm
05:39 PM 38.2°F3.4°C 20.7°F-6.3°C 49% 3.3 mph SE5.3 kmh SE 6.5 mph10.5 kmh 29.86 in1011.2 mb 0.00 in0.0 mm 0.00 in0.0 mm 0.02 in0.5 mm
05:34 PM 38.3°F3.5°C 20.8°F-6.2°C 49% 2.5 mph ESE4.0 kmh ESE 3.8 mph6.1 kmh 29.87 in1011.5 mb 0.00 in0.0 mm 0.00 in0.0 mm 0.02 in0.5 mm
05:29 PM 38.6°F3.7°C 21.1°F-6.1°C 49% 2.8 mph ESE4.5 kmh ESE 5.0 mph8.0 kmh 29.87 in1011.5 mb 0.00 in0.0 mm 0.00 in0.0 mm 0.02 in0.5 mm
05:24 PM 38.7°F3.7°C 20.7°F-6.3°C 48% 1.6 mph SE2.6 kmh SE 2.6 mph4.2 kmh 29.87 in1011.5 mb 0.00 in0.0 mm 0.00 in0.0 mm 0.02 in0.5 mm
05:19 PM 39.0°F3.9°C 21.0°F-6.1°C 48% 2.8 mph SE4.5 kmh SE 4.9 mph7.9 kmh 29.87 in1011.5 mb 0.00 in0.0 mm 0.00 in0.0 mm 0.02 in0.5 mm
05:14 PM 39.1°F3.9°C 22.0°F-5.6°C 50% 3.0 mph SE4.8 kmh SE 5.8 mph9.3 kmh 29.87 in1011.5 mb 0.00 in0.0 mm 0.00 in0.0 mm 0.02 in0.5 mm
05:09 PM 39.3°F4.1°C 21.8°F-5.7°C 49% 2.7 mph S4.3 kmh S 4.7 mph7.6 kmh 29.87 in1011.5 mb 0.00 in0.0 mm 0.00 in0.0 mm 0.02 in0.5 mm
05:04 PM 39.7°F4.3°C 21.6°F-5.8°C 48% 4.1 mph SE6.6 kmh SE 6.9 mph11.1 kmh 29.86 in1011.2 mb 0.00 in0.0 mm 0.00 in0.0 mm 0.02 in0.5 mm
04:59 PM 39.7°F4.3°C 21.6°F-5.8°C 48% 3.9 mph SE6.3 kmh SE 7.1 mph11.4 kmh 29.86 in1011.2 mb 0.00 in0.0 mm 0.00 in0.0 mm 0.02 in0.5 mm
04:54 PM 40.0°F4.4°C 21.4°F-5.9°C 47% 3.7 mph SE6.0 kmh SE 6.2 mph10.0 kmh 29.86 in1011.2 mb 0.00 in0.0 mm 0.00 in0.0 mm 0.02 in0.5 mm
04:49 PM 40.3°F4.6°C 21.7°F-5.7°C 47% 4.6 mph SE7.4 kmh SE 8.7 mph14.0 kmh 29.86 in1011.2 mb 0.00 in0.0 mm 0.00 in0.0 mm 0.02 in0.5 mm
04:44 PM 40.6°F4.8°C 22.0°F-5.6°C 47% 4.5 mph SE7.2 kmh SE 7.3 mph11.7 kmh 29.86 in1011.2 mb 0.00 in0.0 mm 0.00 in0.0 mm 0.02 in0.5 mm
04:39 PM 40.7°F4.8°C 22.1°F-5.5°C 47% 3.8 mph SE6.1 kmh SE 6.3 mph10.1 kmh 29.86 in1011.2 mb 0.00 in0.0 mm 0.00 in0.0 mm 0.02 in0.5 mm
04:34 PM 41.0°F5.0°C 21.8°F-5.7°C 46% 4.1 mph SE6.6 kmh SE 8.4 mph13.5 kmh 29.86 in1011.2 mb 0.00 in0.0 mm 0.00 in0.0 mm 0.02 in0.5 mm
04:29 PM 41.3°F5.2°C 22.1°F-5.5°C 46% 3.1 mph SE5.0 kmh SE 4.7 mph7.6 kmh 29.86 in1011.2 mb 0.00 in0.0 mm 0.00 in0.0 mm 0.02 in0.5 mm
04:24 PM 41.7°F5.4°C 22.5°F-5.3°C 46% 5.0 mph SE8.0 kmh SE 8.9 mph14.3 kmh 29.86 in1011.2 mb 0.00 in0.0 mm 0.00 in0.0 mm 0.02 in0.5 mm
04:19 PM 41.9°F5.5°C 22.1°F-5.5°C 45% 5.0 mph SE8.0 kmh SE 9.0 mph14.5 kmh 29.86 in1011.2 mb 0.00 in0.0 mm 0.00 in0.0 mm 0.02 in0.5 mm
04:14 PM 42.4°F5.8°C 22.1°F-5.5°C 44% 3.9 mph SE6.3 kmh SE 5.9 mph9.5 kmh 29.86 in1011.2 mb 0.00 in0.0 mm 0.00 in0.0 mm 0.02 in0.5 mm
04:09 PM 43.1°F6.2°C 21.6°F-5.8°C 42% 3.3 mph SE5.3 kmh SE 6.7 mph10.8 kmh 29.86 in1011.2 mb 0.00 in0.0 mm 0.00 in0.0 mm 0.02 in0.5 mm
04:04 PM 43.4°F6.3°C 21.9°F-5.6°C 42% 4.8 mph SE7.7 kmh SE 7.9 mph12.7 kmh 29.87 in1011.5 mb 0.00 in0.0 mm 0.00 in0.0 mm 0.02 in0.5 mm
03:59 PM 43.6°F6.4°C 21.5°F-5.8°C 41% 5.3 mph SE8.5 kmh SE 10.0 mph16.1 kmh 29.86 in1011.2 mb 0.00 in0.0 mm 0.00 in0.0 mm 0.02 in0.5 mm
03:54 PM 43.9°F6.6°C 21.2°F-6.0°C 40% 4.5 mph SE7.2 kmh SE 7.8 mph12.6 kmh 29.85 in1010.8 mb 0.00 in0.0 mm 0.00 in0.0 mm 0.02 in0.5 mm
03:49 PM 44.3°F6.8°C 21.5°F-5.8°C 40% 3.7 mph SE6.0 kmh SE 7.6 mph12.2 kmh 29.86 in1011.2 mb 0.00 in0.0 mm 0.00 in0.0 mm 0.02 in0.5 mm
03:44 PM 44.6°F7.0°C 21.2°F-6.0°C 39% 5.6 mph SE9.0 kmh SE 10.8 mph17.4 kmh 29.86 in1011.2 mb 0.00 in0.0 mm 0.00 in0.0 mm 0.02 in0.5 mm
03:39 PM 44.7°F7.1°C 21.3°F-5.9°C 39% 4.7 mph SE7.6 kmh SE 9.1 mph14.6 kmh 29.86 in1011.2 mb 0.00 in0.0 mm 0.00 in0.0 mm 0.02 in0.5 mm
03:34 PM 44.7°F7.1°C 21.9°F-5.6°C 40% 5.8 mph SE9.3 kmh SE 10.0 mph16.1 kmh 29.86 in1011.2 mb 0.00 in0.0 mm 0.00 in0.0 mm 0.02 in0.5 mm
03:29 PM 44.7°F7.1°C 21.3°F-5.9°C 39% 4.4 mph SE7.1 kmh SE 6.9 mph11.1 kmh 29.86 in1011.2 mb 0.00 in0.0 mm 0.00 in0.0 mm 0.02 in0.5 mm
03:24 PM 44.9°F7.2°C 21.5°F-5.8°C 39% 4.8 mph SE7.7 kmh SE 7.9 mph12.7 kmh 29.87 in1011.5 mb 0.00 in0.0 mm 0.00 in0.0 mm 0.02 in0.5 mm
03:19 PM 45.3°F7.4°C 21.8°F-5.7°C 39% 4.1 mph SE6.6 kmh SE 7.1 mph11.4 kmh 29.87 in1011.5 mb 0.00 in0.0 mm 0.00 in0.0 mm 0.02 in0.5 mm
03:14 PM 45.6°F7.6°C 21.5°F-5.8°C 38% 3.1 mph SE5.0 kmh SE 5.5 mph8.9 kmh 29.88 in1011.9 mb 0.00 in0.0 mm 0.00 in0.0 mm 0.02 in0.5 mm
03:09 PM 45.6°F7.6°C 22.1°F-5.5°C 39% 4.2 mph SSE6.8 kmh SSE 9.6 mph15.4 kmh 29.88 in1011.9 mb 0.00 in0.0 mm 0.00 in0.0 mm 0.02 in0.5 mm
03:04 PM 45.7°F7.6°C 21.6°F-5.8°C 38% 4.8 mph SE7.7 kmh SE 8.6 mph13.8 kmh 29.88 in1011.9 mb 0.00 in0.0 mm 0.00 in0.0 mm 0.02 in0.5 mm
02:59 PM 46.0°F7.8°C 21.8°F-5.7°C 38% 4.0 mph SE6.4 kmh SE 8.1 mph13.0 kmh 29.88 in1011.9 mb 0.00 in0.0 mm 0.00 in0.0 mm 0.02 in0.5 mm
02:54 PM 46.2°F7.9°C 21.4°F-5.9°C 37% 6.6 mph SSE10.6 kmh SSE 12.2 mph19.6 kmh 29.88 in1011.9 mb 0.00 in0.0 mm 0.00 in0.0 mm 0.02 in0.5 mm
02:49 PM 46.3°F7.9°C 20.8°F-6.2°C 36% 4.6 mph SE7.4 kmh SE 9.4 mph15.1 kmh 29.89 in1012.2 mb 0.00 in0.0 mm 0.00 in0.0 mm 0.02 in0.5 mm
02:44 PM 46.5°F8.1°C 21.7°F-5.7°C 37% 5.2 mph SSE8.4 kmh SSE 11.0 mph17.7 kmh 29.89 in1012.2 mb 0.00 in0.0 mm 0.00 in0.0 mm 0.02 in0.5 mm
02:39 PM 46.6°F8.1°C 21.7°F-5.7°C 37% 6.3 mph S10.1 kmh S 13.6 mph21.9 kmh 29.90 in1012.5 mb 0.00 in0.0 mm 0.00 in0.0 mm 0.02 in0.5 mm
02:34 PM 46.8°F8.2°C 21.9°F-5.6°C 37% 5.2 mph SE8.4 kmh SE 9.8 mph15.8 kmh 29.90 in1012.5 mb 0.00 in0.0 mm 0.00 in0.0 mm 0.02 in0.5 mm
02:29 PM 46.7°F8.2°C 22.5°F-5.3°C 38% 5.7 mph SE9.2 kmh SE 13.0 mph20.9 kmh 29.91 in1012.9 mb 0.00 in0.0 mm 0.00 in0.0 mm 0.02 in0.5 mm
02:24 PM 46.8°F8.2°C 22.5°F-5.3°C 38% 5.7 mph SE9.2 kmh SE 10.4 mph16.7 kmh 29.91 in1012.9 mb 0.00 in0.0 mm 0.00 in0.0 mm 0.02 in0.5 mm
02:19 PM 47.2°F8.4°C 22.9°F-5.1°C 38% 4.4 mph SE7.1 kmh SE 8.4 mph13.5 kmh 29.91 in1012.9 mb 0.00 in0.0 mm 0.00 in0.0 mm 0.02 in0.5 mm
02:14 PM 47.2°F8.4°C 22.9°F-5.1°C 38% 5.3 mph SSE8.5 kmh SSE 9.4 mph15.1 kmh 29.92 in1013.2 mb 0.00 in0.0 mm 0.00 in0.0 mm 0.02 in0.5 mm
02:09 PM 47.1°F8.4°C 22.2°F-5.4°C 37% 3.9 mph SSE6.3 kmh SSE 7.6 mph12.2 kmh 29.92 in1013.2 mb 0.00 in0.0 mm 0.00 in0.0 mm 0.02 in0.5 mm
02:04 PM 47.2°F8.4°C 22.9°F-5.1°C 38% 5.6 mph ESE9.0 kmh ESE 9.3 mph15.0 kmh 29.92 in1013.2 mb 0.00 in0.0 mm 0.00 in0.0 mm 0.02 in0.5 mm
01:59 PM 47.4°F8.6°C 23.7°F-4.6°C 39% 4.5 mph SE7.2 kmh SE 7.7 mph12.4 kmh 29.93 in1013.5 mb 0.00 in0.0 mm 0.00 in0.0 mm 0.02 in0.5 mm
01:54 PM 47.0°F8.3°C 24.5°F-4.2°C 41% 5.7 mph SSE9.2 kmh SSE 9.4 mph15.1 kmh 29.93 in1013.5 mb 0.00 in0.0 mm 0.00 in0.0 mm 0.02 in0.5 mm
01:49 PM 46.7°F8.2°C 24.8°F-4.0°C 42% 3.5 mph SE5.6 kmh SE 6.9 mph11.1 kmh 29.93 in1013.5 mb 0.00 in0.0 mm 0.00 in0.0 mm 0.01 in0.3 mm
01:44 PM 46.5°F8.1°C 25.2°F-3.8°C 43% 3.6 mph SE5.8 kmh SE 5.9 mph9.5 kmh 29.93 in1013.5 mb 0.00 in0.0 mm 0.00 in0.0 mm 0.01 in0.3 mm
01:39 PM 46.4°F8.0°C 25.1°F-3.8°C 43% 4.2 mph SE6.8 kmh SE 6.7 mph10.8 kmh 29.93 in1013.5 mb 0.00 in0.0 mm 0.00 in0.0 mm 0.01 in0.3 mm
01:34 PM 45.9°F7.7°C 25.8°F-3.4°C 45% 4.4 mph SE7.1 kmh SE 7.1 mph11.4 kmh 29.94 in1013.9 mb 0.00 in0.0 mm 0.00 in0.0 mm 0.01 in0.3 mm
01:29 PM 45.4°F7.4°C 26.4°F-3.1°C 47% 3.2 mph S5.1 kmh S 5.3 mph8.5 kmh 29.94 in1013.9 mb 0.00 in0.0 mm 0.00 in0.0 mm 0.01 in0.3 mm
01:24 PM 45.2°F7.3°C 26.2°F-3.2°C 47% 3.2 mph SE5.1 kmh SE 6.0 mph9.7 kmh 29.94 in1013.9 mb 0.00 in0.0 mm 0.00 in0.0 mm 0.01 in0.3 mm
01:19 PM 45.2°F7.3°C 26.7°F-2.9°C 48% 4.6 mph ESE7.4 kmh ESE 7.8 mph12.6 kmh 29.94 in1013.9 mb 0.00 in0.0 mm 0.00 in0.0 mm 0.01 in0.3 mm
01:14 PM 44.9°F7.2°C 26.9°F-2.8°C 49% 3.8 mph SE6.1 kmh SE 7.0 mph11.3 kmh 29.95 in1014.2 mb 0.00 in0.0 mm 0.00 in0.0 mm 0.01 in0.3 mm
01:09 PM 44.6°F7.0°C 27.1°F-2.7°C 50% 4.6 mph SE7.4 kmh SE 8.4 mph13.5 kmh 29.95 in1014.2 mb 0.00 in0.0 mm 0.00 in0.0 mm 0.01 in0.3 mm
01:04 PM 44.2°F6.8°C 27.2°F-2.7°C 51% 4.4 mph SE7.1 kmh SE 7.3 mph11.7 kmh 29.95 in1014.2 mb 0.00 in0.0 mm 0.00 in0.0 mm 0.01 in0.3 mm
12:59 PM 43.8°F6.6°C 27.3°F-2.6°C 52% 4.2 mph SE6.8 kmh SE 7.1 mph11.4 kmh 29.95 in1014.2 mb 0.00 in0.0 mm 0.00 in0.0 mm 0.01 in0.3 mm
12:54 PM 43.6°F6.4°C 27.6°F-2.4°C 53% 3.3 mph SE5.3 kmh SE 6.1 mph9.8 kmh 29.95 in1014.2 mb 0.00 in0.0 mm 0.00 in0.0 mm 0.01 in0.3 mm
12:49 PM 43.5°F6.4°C 28.0°F-2.2°C 54% 3.4 mph ESE5.5 kmh ESE 5.3 mph8.5 kmh 29.95 in1014.2 mb 0.00 in0.0 mm 0.00 in0.0 mm 0.01 in0.3 mm
12:44 PM 43.2°F6.2°C 27.7°F-2.4°C 54% 4.5 mph SE7.2 kmh SE 7.1 mph11.4 kmh 29.96 in1014.6 mb 0.00 in0.0 mm 0.00 in0.0 mm 0.01 in0.3 mm
12:39 PM 42.8°F6.0°C 28.2°F-2.1°C 56% 4.7 mph SE7.6 kmh SE 8.7 mph14.0 kmh 29.96 in1014.6 mb 0.00 in0.0 mm 0.00 in0.0 mm 0.01 in0.3 mm
12:34 PM 42.7°F5.9°C 28.5°F-1.9°C 57% 4.4 mph SE7.1 kmh SE 7.0 mph11.3 kmh 29.96 in1014.6 mb 0.00 in0.0 mm 0.00 in0.0 mm 0.01 in0.3 mm
12:29 PM 42.4°F5.8°C 28.3°F-2.1°C 57% 3.4 mph SE5.5 kmh SE 5.8 mph9.3 kmh 29.97 in1014.9 mb 0.00 in0.0 mm 0.00 in0.0 mm 0.01 in0.3 mm
12:24 PM 42.3°F5.7°C 28.6°F-1.9°C 58% 3.0 mph SE4.8 kmh SE 5.0 mph8.0 kmh 29.97 in1014.9 mb 0.00 in0.0 mm 0.00 in0.0 mm 0.01 in0.3 mm
12:19 PM 42.3°F5.7°C 29.0°F-1.7°C 59% 4.7 mph SE7.6 kmh SE 8.3 mph13.4 kmh 29.97 in1014.9 mb 0.00 in0.0 mm 0.00 in0.0 mm 0.00 in0.0 mm
12:14 PM 42.0°F5.6°C 29.1°F-1.6°C 60% 3.5 mph SSE5.6 kmh SSE 6.1 mph9.8 kmh 29.97 in1014.9 mb 0.00 in0.0 mm 0.00 in0.0 mm 0.00 in0.0 mm
12:09 PM 41.6°F5.3°C 29.2°F-1.6°C 61% 3.7 mph SE6.0 kmh SE 7.0 mph11.3 kmh 29.97 in1014.9 mb 0.00 in0.0 mm 0.00 in0.0 mm 0.00 in0.0 mm
12:04 PM 41.1°F5.1°C 29.5°F-1.4°C 63% 2.3 mph SE3.7 kmh SE 4.9 mph7.9 kmh 29.97 in1014.9 mb 0.00 in0.0 mm 0.00 in0.0 mm 0.00 in0.0 mm
11:59 AM 40.8°F4.9°C 29.2°F-1.6°C 63% 3.6 mph ESE5.8 kmh ESE 7.1 mph11.4 kmh 29.98 in1015.2 mb 0.00 in0.0 mm 0.00 in0.0 mm 0.00 in0.0 mm
11:54 AM 40.3°F4.6°C 29.5°F-1.4°C 65% 3.1 mph SSE5.0 kmh SSE 6.9 mph11.1 kmh 29.98 in1015.2 mb 0.00 in0.0 mm 0.00 in0.0 mm 0.00 in0.0 mm
11:49 AM 39.7°F4.3°C 29.3°F-1.5°C 66% 4.2 mph SE6.8 kmh SE 7.3 mph11.7 kmh 29.98 in1015.2 mb 0.00 in0.0 mm 0.00 in0.0 mm 0.00 in0.0 mm
11:44 AM 39.3°F4.1°C 29.6°F-1.3°C 68% 3.0 mph SE4.8 kmh SE 6.1 mph9.8 kmh 29.98 in1015.2 mb 0.00 in0.0 mm 0.00 in0.0 mm 0.00 in0.0 mm
11:39 AM 38.8°F3.8°C 29.5°F-1.4°C 69% 3.3 mph SE5.3 kmh SE 5.2 mph8.4 kmh 29.98 in1015.2 mb 0.00 in0.0 mm 0.00 in0.0 mm 0.00 in0.0 mm
11:34 AM 38.5°F3.6°C 29.6°F-1.3°C 70% 3.4 mph ESE5.5 kmh ESE 5.2 mph8.4 kmh 29.99 in1015.6 mb 0.00 in0.0 mm 0.00 in0.0 mm 0.00 in0.0 mm
11:29 AM 38.0°F3.3°C 29.4°F-1.4°C 71% 3.8 mph SE6.1 kmh SE 6.6 mph10.6 kmh 29.99 in1015.6 mb 0.00 in0.0 mm 0.00 in0.0 mm 0.00 in0.0 mm
11:24 AM 37.5°F3.1°C 29.3°F-1.5°C 72% 4.3 mph SSE6.9 kmh SSE 6.5 mph10.5 kmh 30.00 in1015.9 mb 0.00 in0.0 mm 0.00 in0.0 mm 0.00 in0.0 mm
11:19 AM 37.2°F2.9°C 29.4°F-1.4°C 73% 3.4 mph SSE5.5 kmh SSE 5.7 mph9.2 kmh 30.00 in1015.9 mb 0.00 in0.0 mm 0.00 in0.0 mm 0.00 in0.0 mm
11:14 AM 36.8°F2.7°C 29.3°F-1.5°C 74% 3.0 mph S4.8 kmh S 5.8 mph9.3 kmh 30.00 in1015.9 mb 0.00 in0.0 mm 0.00 in0.0 mm 0.00 in0.0 mm
11:09 AM 36.5°F2.5°C 29.3°F-1.5°C 75% 3.9 mph SE6.3 kmh SE 6.9 mph11.1 kmh 30.00 in1015.9 mb 0.00 in0.0 mm 0.00 in0.0 mm 0.00 in0.0 mm
11:04 AM 36.2°F2.3°C 29.4°F-1.4°C 76% 4.8 mph SE7.7 kmh SE 8.3 mph13.4 kmh 30.00 in1015.9 mb 0.00 in0.0 mm 0.00 in0.0 mm 0.00 in0.0 mm
10:59 AM 35.9°F2.2°C 29.4°F-1.4°C 77% 3.2 mph SE5.1 kmh SE 6.1 mph9.8 kmh 30.00 in1015.9 mb 0.00 in0.0 mm 0.00 in0.0 mm 0.00 in0.0 mm
10:54 AM 35.5°F1.9°C 29.3°F-1.5°C 78% 3.9 mph SE6.3 kmh SE 6.5 mph10.5 kmh 30.00 in1015.9 mb 0.00 in0.0 mm 0.00 in0.0 mm 0.00 in0.0 mm
10:49 AM 35.0°F1.7°C 29.5°F-1.4°C 80% 3.3 mph SE5.3 kmh SE 5.5 mph8.9 kmh 30.00 in1015.9 mb 0.00 in0.0 mm 0.00 in0.0 mm 0.00 in0.0 mm
10:44 AM 34.5°F1.4°C 29.3°F-1.5°C 81% 3.5 mph SE5.6 kmh SE 5.8 mph9.3 kmh 30.00 in1015.9 mb 0.00 in0.0 mm 0.00 in0.0 mm 0.00 in0.0 mm
10:39 AM 34.0°F1.1°C 29.1°F-1.6°C 82% 2.8 mph SE4.5 kmh SE 5.4 mph8.7 kmh 30.00 in1015.9 mb 0.00 in0.0 mm 0.00 in0.0 mm 0.00 in0.0 mm
10:34 AM 33.6°F0.9°C 29.0°F-1.7°C 83% 3.3 mph SE5.3 kmh SE 6.1 mph9.8 kmh 30.00 in1015.9 mb 0.00 in0.0 mm 0.00 in0.0 mm 0.00 in0.0 mm
10:29 AM 33.3°F0.7°C 29.0°F-1.7°C 84% 4.0 mph SE6.4 kmh SE 6.2 mph10.0 kmh 30.00 in1015.9 mb 0.00 in0.0 mm 0.00 in0.0 mm 0.00 in0.0 mm
10:24 AM 32.9°F0.5°C 29.2°F-1.6°C 86% 4.3 mph SE6.9 kmh SE 6.5 mph10.5 kmh 30.00 in1015.9 mb 0.00 in0.0 mm 0.00 in0.0 mm 0.00 in0.0 mm
10:19 AM 32.4°F0.2°C 29.0°F-1.7°C 87% 3.7 mph SE6.0 kmh SE 6.3 mph10.1 kmh 30.00 in1015.9 mb 0.00 in0.0 mm 0.00 in0.0 mm 0.00 in0.0 mm
10:14 AM 31.8°F-0.1°C 28.9°F-1.7°C 89% 3.9 mph ESE6.3 kmh ESE 6.0 mph9.7 kmh 30.00 in1015.9 mb 0.00 in0.0 mm 0.00 in0.0 mm 0.00 in0.0 mm
10:09 AM 31.3°F-0.4°C 28.7°F-1.8°C 90% 2.9 mph SE4.7 kmh SE 4.1 mph6.6 kmh 30.00 in1015.9 mb 0.00 in0.0 mm 0.00 in0.0 mm 0.00 in0.0 mm
10:04 AM 31.0°F-0.6°C 29.0°F-1.7°C 92% 3.7 mph SE6.0 kmh SE 5.5 mph8.9 kmh 30.00 in1015.9 mb 0.00 in0.0 mm 0.00 in0.0 mm 0.00 in0.0 mm
09:59 AM 30.5°F-0.8°C 28.7°F-1.8°C 93% 3.8 mph SE6.1 kmh SE 5.8 mph9.3 kmh 30.00 in1015.9 mb 0.00 in0.0 mm 0.00 in0.0 mm 0.00 in0.0 mm
09:54 AM 29.7°F-1.3°C 28.4°F-2.0°C 95% 3.1 mph ESE5.0 kmh ESE 4.7 mph7.6 kmh 30.01 in1016.3 mb 0.00 in0.0 mm 0.00 in0.0 mm 0.00 in0.0 mm
09:49 AM 29.1°F-1.6°C 28.1°F-2.2°C 96% 3.1 mph SE5.0 kmh SE 5.0 mph8.0 kmh 30.01 in1016.3 mb 0.00 in0.0 mm 0.00 in0.0 mm 0.00 in0.0 mm
09:44 AM 28.6°F-1.9°C 27.9°F-2.3°C 97% 2.0 mph ESE3.2 kmh ESE 3.5 mph5.6 kmh 30.00 in1015.9 mb 0.00 in0.0 mm 0.00 in0.0 mm 0.00 in0.0 mm
09:39 AM 28.1°F-2.2°C 27.1°F-2.7°C 96% 2.3 mph SSE3.7 kmh SSE 4.5 mph7.2 kmh 30.01 in1016.3 mb 0.00 in0.0 mm 0.00 in0.0 mm 0.00 in0.0 mm
09:34 AM 27.7°F-2.4°C 26.7°F-2.9°C 96% 2.2 mph SE3.5 kmh SE 3.9 mph6.3 kmh 30.00 in1015.9 mb 0.00 in0.0 mm 0.00 in0.0 mm 0.00 in0.0 mm
09:29 AM 27.1°F-2.7°C 26.6°F-3.0°C 98% 2.6 mph SE4.2 kmh SE 5.1 mph8.2 kmh 30.00 in1015.9 mb 0.00 in0.0 mm 0.00 in0.0 mm 0.00 in0.0 mm
09:24 AM 26.7°F-2.9°C 26.2°F-3.2°C 98% 1.8 mph SE2.9 kmh SE 2.9 mph4.7 kmh 30.00 in1015.9 mb 0.00 in0.0 mm 0.00 in0.0 mm 0.00 in0.0 mm
09:19 AM 26.2°F-3.2°C 25.7°F-3.5°C 98% 1.9 mph ESE3.1 kmh ESE 3.2 mph5.1 kmh 30.00 in1015.9 mb 0.00 in0.0 mm 0.00 in0.0 mm 0.00 in0.0 mm
09:14 AM 25.5°F-3.6°C 25.0°F-3.9°C 98% 2.0 mph ESE3.2 kmh ESE 3.1 mph5.0 kmh 30.00 in1015.9 mb 0.00 in0.0 mm 0.00 in0.0 mm 0.00 in0.0 mm
09:09 AM 24.9°F-3.9°C 24.4°F-4.2°C 98% 2.4 mph SE3.9 kmh SE 3.9 mph6.3 kmh 30.00 in1015.9 mb 0.00 in0.0 mm 0.00 in0.0 mm 0.00 in0.0 mm
09:04 AM 24.4°F-4.2°C 23.9°F-4.5°C 98% 1.7 mph ESE2.7 kmh ESE 3.1 mph5.0 kmh 30.00 in1015.9 mb 0.00 in0.0 mm 0.00 in0.0 mm 0.00 in0.0 mm
08:59 AM 23.9°F-4.5°C 23.4°F-4.8°C 98% 1.8 mph SE2.9 kmh SE 2.7 mph4.3 kmh 30.00 in1015.9 mb 0.00 in0.0 mm 0.00 in0.0 mm 0.00 in0.0 mm
08:54 AM 23.4°F-4.8°C 22.7°F-5.2°C 97% 1.0 mph SE1.6 kmh SE 2.7 mph4.3 kmh 30.00 in1015.9 mb 0.00 in0.0 mm 0.00 in0.0 mm 0.00 in0.0 mm
08:49 AM 22.9°F-5.1°C 22.2°F-5.4°C 97% 1.4 mph SE2.3 kmh SE 2.3 mph3.7 kmh 29.99 in1015.6 mb 0.00 in0.0 mm 0.00 in0.0 mm 0.00 in0.0 mm
08:44 AM 22.7°F-5.2°C 22.0°F-5.6°C 97% 0.4 mph S0.6 kmh S 1.2 mph1.9 kmh 30.00 in1015.9 mb 0.00 in0.0 mm 0.00 in0.0 mm 0.00 in0.0 mm
08:39 AM 22.8°F-5.1°C 22.1°F-5.5°C 97% 0.8 mph SE1.3 kmh SE 1.9 mph3.1 kmh 29.99 in1015.6 mb 0.00 in0.0 mm 0.00 in0.0 mm 0.00 in0.0 mm
08:34 AM 22.7°F-5.2°C 22.0°F-5.6°C 97% 2.1 mph SE3.4 kmh SE 2.7 mph4.3 kmh 30.00 in1015.9 mb 0.00 in0.0 mm 0.00 in0.0 mm 0.00 in0.0 mm
08:29 AM 22.4°F-5.3°C 21.9°F-5.6°C 98% 1.7 mph SE2.7 kmh SE 2.7 mph4.3 kmh 30.00 in1015.9 mb 0.00 in0.0 mm 0.00 in0.0 mm 0.00 in0.0 mm
08:24 AM 22.1°F-5.5°C 21.6°F-5.8°C 98% 1.9 mph ESE3.1 kmh ESE 2.9 mph4.7 kmh 29.99 in1015.6 mb 0.00 in0.0 mm 0.00 in0.0 mm 0.00 in0.0 mm
08:19 AM 21.6°F-5.8°C 21.1°F-6.1°C 98% 1.6 mph ESE2.6 kmh ESE 2.6 mph4.2 kmh 29.99 in1015.6 mb 0.00 in0.0 mm 0.00 in0.0 mm 0.00 in0.0 mm
08:14 AM 21.2°F-6.0°C 20.5°F-6.4°C 97% 2.0 mph SE3.2 kmh SE 3.0 mph4.8 kmh 29.99 in1015.6 mb 0.00 in0.0 mm 0.00 in0.0 mm 0.00 in0.0 mm
08:09 AM 20.7°F-6.3°C 19.7°F-6.8°C 96% 1.6 mph ESE2.6 kmh ESE 2.4 mph3.9 kmh 30.00 in1015.9 mb 0.00 in0.0 mm 0.00 in0.0 mm 0.00 in0.0 mm
08:04 AM 20.2°F-6.6°C 19.2°F-7.1°C 96% 1.3 mph SSE2.1 kmh SSE 2.2 mph3.5 kmh 30.00 in1015.9 mb 0.00 in0.0 mm 0.00 in0.0 mm 0.00 in0.0 mm
07:59 AM 20.1°F-6.6°C 19.1°F-7.2°C 96% 1.0 mph ESE1.6 kmh ESE 1.8 mph2.9 kmh 30.00 in1015.9 mb 0.00 in0.0 mm 0.00 in0.0 mm 0.00 in0.0 mm
07:54 AM 20.4°F-6.4°C 19.4°F-7.0°C 96% 1.6 mph ESE2.6 kmh ESE 2.4 mph3.9 kmh 30.00 in1015.9 mb 0.00 in0.0 mm 0.00 in0.0 mm 0.00 in0.0 mm
07:49 AM 20.8°F-6.2°C 20.1°F-6.6°C 97% 1.7 mph ESE2.7 kmh ESE 2.5 mph4.0 kmh 30.00 in1015.9 mb 0.00 in0.0 mm 0.00 in0.0 mm 0.00 in0.0 mm
07:44 AM 20.8°F-6.2°C 20.1°F-6.6°C 97% 1.7 mph SE2.7 kmh SE 2.1 mph3.4 kmh 30.00 in1015.9 mb 0.00 in0.0 mm 0.00 in0.0 mm 0.00 in0.0 mm
07:39 AM 20.8°F-6.2°C 20.1°F-6.6°C 97% 1.8 mph SE2.9 kmh SE 2.1 mph3.4 kmh 30.00 in1015.9 mb 0.00 in0.0 mm 0.00 in0.0 mm 0.00 in0.0 mm
07:34 AM 21.1°F-6.1°C 20.4°F-6.4°C 97% 1.3 mph SE2.1 kmh SE 1.8 mph2.9 kmh 30.01 in1016.3 mb 0.00 in0.0 mm 0.00 in0.0 mm 0.00 in0.0 mm
07:29 AM 21.2°F-6.0°C 20.5°F-6.4°C 97% 0.9 mph SE1.4 kmh SE 1.8 mph2.9 kmh 30.01 in1016.3 mb 0.00 in0.0 mm 0.00 in0.0 mm 0.00 in0.0 mm
07:24 AM 20.8°F-6.2°C 20.1°F-6.6°C 97% 1.8 mph SE2.9 kmh SE 2.3 mph3.7 kmh 30.01 in1016.3 mb 0.00 in0.0 mm 0.00 in0.0 mm 0.00 in0.0 mm
07:19 AM 20.5°F-6.4°C 19.8°F-6.8°C 97% 1.5 mph SE2.4 kmh SE 2.2 mph3.5 kmh 30.01 in1016.3 mb 0.00 in0.0 mm 0.00 in0.0 mm 0.00 in0.0 mm
07:14 AM 20.5°F-6.4°C 19.8°F-6.8°C 97% 1.0 mph SE1.6 kmh SE 2.1 mph3.4 kmh 30.01 in1016.3 mb 0.00 in0.0 mm 0.00 in0.0 mm 0.00 in0.0 mm
07:09 AM 20.3°F-6.5°C 19.6°F-6.9°C 97% 1.3 mph SE2.1 kmh SE 2.4 mph3.9 kmh 30.01 in1016.3 mb 0.00 in0.0 mm 0.00 in0.0 mm 0.00 in0.0 mm
07:04 AM 20.3°F-6.5°C 19.6°F-6.9°C 97% 1.3 mph SE2.1 kmh SE 2.5 mph4.0 kmh 30.01 in1016.3 mb 0.00 in0.0 mm 0.00 in0.0 mm 0.00 in0.0 mm
06:59 AM 20.3°F-6.5°C 19.6°F-6.9°C 97% 1.4 mph SE2.3 kmh SE 2.3 mph3.7 kmh 30.01 in1016.3 mb 0.00 in0.0 mm 0.00 in0.0 mm 0.00 in0.0 mm
06:54 AM 20.1°F-6.6°C 19.1°F-7.2°C 96% 1.4 mph SE2.3 kmh SE 2.1 mph3.4 kmh 30.01 in1016.3 mb 0.00 in0.0 mm 0.00 in0.0 mm 0.00 in0.0 mm
06:49 AM 20.1°F-6.6°C 18.9°F-7.3°C 95% 2.2 mph SE3.5 kmh SE 3.3 mph5.3 kmh 30.01 in1016.3 mb 0.00 in0.0 mm 0.00 in0.0 mm 0.00 in0.0 mm
06:44 AM 20.4°F-6.4°C 19.4°F-7.0°C 96% 2.3 mph SE3.7 kmh SE 3.1 mph5.0 kmh 30.01 in1016.3 mb 0.00 in0.0 mm 0.00 in0.0 mm 0.00 in0.0 mm
06:39 AM 21.0°F-6.1°C 20.0°F-6.7°C 96% 1.7 mph ESE2.7 kmh ESE 2.5 mph4.0 kmh 30.02 in1016.6 mb 0.00 in0.0 mm 0.00 in0.0 mm 0.00 in0.0 mm
06:34 AM 21.1°F-6.1°C 20.6°F-6.3°C 98% 1.9 mph ESE3.1 kmh ESE 2.4 mph3.9 kmh 30.02 in1016.6 mb 0.00 in0.0 mm 0.00 in0.0 mm 0.00 in0.0 mm
06:29 AM 20.8°F-6.2°C 20.3°F-6.5°C 98% 2.1 mph ESE3.4 kmh ESE 2.5 mph4.0 kmh 30.02 in1016.6 mb 0.00 in0.0 mm 0.00 in0.0 mm 0.00 in0.0 mm
06:24 AM 20.1°F-6.6°C 19.6°F-6.9°C 98% 1.9 mph ESE3.1 kmh ESE 2.3 mph3.7 kmh 30.02 in1016.6 mb 0.00 in0.0 mm 0.00 in0.0 mm 0.00 in0.0 mm
06:19 AM 19.7°F-6.8°C 19.0°F-7.2°C 97% 2.0 mph ESE3.2 kmh ESE 2.5 mph4.0 kmh 30.02 in1016.6 mb 0.00 in0.0 mm 0.00 in0.0 mm 0.00 in0.0 mm
06:14 AM 19.2°F-7.1°C 18.7°F-7.4°C 98% 1.8 mph ESE2.9 kmh ESE 2.4 mph3.9 kmh 30.02 in1016.6 mb 0.00 in0.0 mm 0.00 in0.0 mm 0.00 in0.0 mm
06:09 AM 18.3°F-7.6°C 17.4°F-8.1°C 96% 2.0 mph ESE3.2 kmh ESE 2.7 mph4.3 kmh 30.02 in1016.6 mb 0.00 in0.0 mm 0.00 in0.0 mm 0.00 in0.0 mm
06:04 AM 17.2°F-8.2°C 16.5°F-8.6°C 97% 1.4 mph SE2.3 kmh SE 2.0 mph3.2 kmh 30.02 in1016.6 mb 0.00 in0.0 mm 0.00 in0.0 mm 0.00 in0.0 mm
05:59 AM 16.6°F-8.6°C 15.7°F-9.1°C 96% 0.5 mph SE0.8 kmh SE 1.3 mph2.1 kmh 30.02 in1016.6 mb 0.00 in0.0 mm 0.00 in0.0 mm 0.00 in0.0 mm
05:54 AM 15.7°F-9.1°C 14.3°F-9.8°C 94% 1.9 mph SE3.1 kmh SE 2.6 mph4.2 kmh 30.02 in1016.6 mb 0.00 in0.0 mm 0.00 in0.0 mm 0.00 in0.0 mm
05:49 AM 14.8°F-9.6°C 13.4°F-10.3°C 94% 1.3 mph SE2.1 kmh SE 2.0 mph3.2 kmh 30.02 in1016.6 mb 0.00 in0.0 mm 0.00 in0.0 mm 0.00 in0.0 mm
05:44 AM 15.0°F-9.4°C 13.8°F-10.1°C 95% 0.2 mph SE0.3 kmh SE 0.7 mph1.1 kmh 30.02 in1016.6 mb 0.00 in0.0 mm 0.00 in0.0 mm 0.00 in0.0 mm
05:39 AM 15.1°F-9.4°C 13.9°F-10.1°C 95% Calm Calm -- 30.03 in1016.9 mb 0.00 in0.0 mm 0.00 in0.0 mm 0.00 in0.0 mm
05:34 AM 15.3°F-9.3°C 14.1°F-9.9°C 95% 1.0 mph SE1.6 kmh SE 1.7 mph2.7 kmh 30.02 in1016.6 mb 0.00 in0.0 mm 0.00 in0.0 mm 0.00 in0.0 mm
05:29 AM 15.6°F-9.1°C 14.4°F-9.8°C 95% Calm Calm 0.3 mph0.5 kmh 30.03 in1016.9 mb 0.00 in0.0 mm 0.00 in0.0 mm 0.00 in0.0 mm
05:24 AM 15.9°F-8.9°C 14.7°F-9.6°C 95% Calm Calm -- 30.03 in1016.9 mb 0.00 in0.0 mm 0.00 in0.0 mm 0.00 in0.0 mm
05:19 AM 16.0°F-8.9°C 14.8°F-9.6°C 95% Calm Calm -- 30.03 in1016.9 mb 0.00 in0.0 mm 0.00 in0.0 mm 0.00 in0.0 mm
05:14 AM 16.1°F-8.8°C 15.2°F-9.3°C 96% Calm Calm -- 30.04 in1017.3 mb 0.00 in0.0 mm 0.00 in0.0 mm 0.00 in0.0 mm
05:09 AM 15.9°F-8.9°C 15.0°F-9.4°C 96% Calm Calm -- 30.04 in1017.3 mb 0.00 in0.0 mm 0.00 in0.0 mm 0.00 in0.0 mm
05:04 AM 15.8°F-9.0°C 14.9°F-9.5°C 96% Calm Calm -- 30.04 in1017.3 mb 0.00 in0.0 mm 0.00 in0.0 mm 0.00 in0.0 mm
04:59 AM 15.6°F-9.1°C 14.7°F-9.6°C 96% Calm Calm -- 30.04 in1017.3 mb 0.00 in0.0 mm 0.00 in0.0 mm 0.00 in0.0 mm
04:54 AM 15.5°F-9.2°C 14.6°F-9.7°C 96% Calm Calm -- 30.04 in1017.3 mb 0.00 in0.0 mm 0.00 in0.0 mm 0.00 in0.0 mm
04:49 AM 15.5°F-9.2°C 14.3°F-9.8°C 95% Calm Calm -- 30.04 in1017.3 mb 0.00 in0.0 mm 0.00 in0.0 mm 0.00 in0.0 mm
04:44 AM 15.6°F-9.1°C 14.4°F-9.8°C 95% Calm Calm -- 30.04 in1017.3 mb 0.00 in0.0 mm 0.00 in0.0 mm 0.00 in0.0 mm
04:39 AM 15.7°F-9.1°C 14.5°F-9.7°C 95% Calm Calm -- 30.04 in1017.3 mb 0.00 in0.0 mm 0.00 in0.0 mm 0.00 in0.0 mm
04:34 AM 15.9°F-8.9°C 14.7°F-9.6°C 95% Calm Calm -- 30.04 in1017.3 mb 0.00 in0.0 mm 0.00 in0.0 mm 0.00 in0.0 mm
04:29 AM 16.1°F-8.8°C 14.9°F-9.5°C 95% Calm Calm -- 30.05 in1017.6 mb 0.00 in0.0 mm 0.00 in0.0 mm 0.00 in0.0 mm
04:24 AM 16.3°F-8.7°C 15.1°F-9.4°C 95% Calm Calm -- 30.05 in1017.6 mb 0.00 in0.0 mm 0.00 in0.0 mm 0.00 in0.0 mm
04:19 AM 16.5°F-8.6°C 15.3°F-9.3°C 95% Calm Calm -- 30.05 in1017.6 mb 0.00 in0.0 mm 0.00 in0.0 mm 0.00 in0.0 mm
04:14 AM 16.6°F-8.6°C 15.7°F-9.1°C 96% Calm Calm -- 30.05 in1017.6 mb 0.00 in0.0 mm 0.00 in0.0 mm 0.00 in0.0 mm
04:09 AM 16.6°F-8.6°C 15.7°F-9.1°C 96% Calm Calm -- 30.05 in1017.6 mb 0.00 in0.0 mm 0.00 in0.0 mm 0.00 in0.0 mm
04:04 AM 16.8°F-8.4°C 15.9°F-8.9°C 96% Calm Calm -- 30.05 in1017.6 mb 0.00 in0.0 mm 0.00 in0.0 mm 0.00 in0.0 mm
03:59 AM 17.1°F-8.3°C 16.2°F-8.8°C 96% Calm Calm -- 30.06 in1017.9 mb 0.00 in0.0 mm 0.00 in0.0 mm 0.00 in0.0 mm
03:54 AM 17.3°F-8.2°C 16.4°F-8.7°C 96% Calm Calm -- 30.06 in1017.9 mb 0.00 in0.0 mm 0.00 in0.0 mm 0.00 in0.0 mm
03:49 AM 17.5°F-8.1°C 16.6°F-8.6°C 96% Calm Calm -- 30.06 in1017.9 mb 0.00 in0.0 mm 0.00 in0.0 mm 0.00 in0.0 mm
03:44 AM 17.6°F-8.0°C 16.7°F-8.5°C 96% Calm Calm -- 30.06 in1017.9 mb 0.00 in0.0 mm 0.00 in0.0 mm 0.00 in0.0 mm
03:39 AM 17.8°F-7.9°C 16.9°F-8.4°C 96% Calm Calm -- 30.06 in1017.9 mb 0.00 in0.0 mm 0.00 in0.0 mm 0.00 in0.0 mm
03:34 AM 18.1°F-7.7°C 17.2°F-8.2°C 96% Calm Calm -- 30.06 in1017.9 mb 0.00 in0.0 mm 0.00 in0.0 mm 0.00 in0.0 mm
03:29 AM 18.1°F-7.7°C 17.2°F-8.2°C 96% Calm Calm -- 30.06 in1017.9 mb 0.00 in0.0 mm 0.00 in0.0 mm 0.00 in0.0 mm
03:24 AM 18.3°F-7.6°C 17.4°F-8.1°C 96% Calm Calm -- 30.06 in1017.9 mb 0.00 in0.0 mm 0.00 in0.0 mm 0.00 in0.0 mm
03:19 AM 18.5°F-7.5°C 17.6°F-8.0°C 96% Calm Calm -- 30.07 in1018.3 mb 0.00 in0.0 mm 0.00 in0.0 mm 0.00 in0.0 mm
03:14 AM 18.6°F-7.4°C 17.7°F-7.9°C 96% Calm Calm -- 30.07 in1018.3 mb 0.00 in0.0 mm 0.00 in0.0 mm 0.00 in0.0 mm
03:09 AM 18.8°F-7.3°C 17.9°F-7.8°C 96% Calm Calm -- 30.07 in1018.3 mb 0.00 in0.0 mm 0.00 in0.0 mm 0.00 in0.0 mm
03:04 AM 18.8°F-7.3°C 17.9°F-7.8°C 96% Calm Calm -- 30.07 in1018.3 mb 0.00 in0.0 mm 0.00 in0.0 mm 0.00 in0.0 mm
02:59 AM 19.2°F-7.1°C 18.3°F-7.6°C 96% Calm Calm -- 30.07 in1018.3 mb 0.00 in0.0 mm 0.00 in0.0 mm 0.00 in0.0 mm
02:54 AM 19.3°F-7.1°C 18.6°F-7.4°C 97% Calm Calm -- 30.07 in1018.3 mb 0.00 in0.0 mm 0.00 in0.0 mm 0.00 in0.0 mm
02:49 AM 19.3°F-7.1°C 18.6°F-7.4°C 97% Calm Calm -- 30.07 in1018.3 mb 0.00 in0.0 mm 0.00 in0.0 mm 0.00 in0.0 mm
02:44 AM 19.0°F-7.2°C 18.1°F-7.7°C 96% Calm Calm -- 30.07 in1018.3 mb 0.00 in0.0 mm 0.00 in0.0 mm 0.00 in0.0 mm
02:39 AM 18.6°F-7.4°C 17.7°F-7.9°C 96% Calm Calm -- 30.07 in1018.3 mb 0.00 in0.0 mm 0.00 in0.0 mm 0.00 in0.0 mm
02:34 AM 18.3°F-7.6°C 17.4°F-8.1°C 96% Calm Calm -- 30.07 in1018.3 mb 0.00 in0.0 mm 0.00 in0.0 mm 0.00 in0.0 mm
02:29 AM 18.3°F-7.6°C 17.4°F-8.1°C 96% Calm Calm -- 30.07 in1018.3 mb 0.00 in0.0 mm 0.00 in0.0 mm 0.00 in0.0 mm
02:24 AM 18.1°F-7.7°C 16.9°F-8.4°C 95% Calm Calm -- 30.07 in1018.3 mb 0.00 in0.0 mm 0.00 in0.0 mm 0.00 in0.0 mm
02:19 AM 18.1°F-7.7°C 16.9°F-8.4°C 95% Calm Calm -- 30.07 in1018.3 mb 0.00 in0.0 mm 0.00 in0.0 mm 0.00 in0.0 mm
02:14 AM 18.5°F-7.5°C 17.3°F-8.2°C 95% Calm Calm -- 30.07 in1018.3 mb 0.00 in0.0 mm 0.00 in0.0 mm 0.00 in0.0 mm
02:09 AM 18.8°F-7.3°C 17.6°F-8.0°C 95% Calm Calm -- 30.07 in1018.3 mb 0.00 in0.0 mm 0.00 in0.0 mm 0.00 in0.0 mm
02:04 AM 19.3°F-7.1°C 18.4°F-7.6°C 96% Calm Calm -- 30.07 in1018.3 mb 0.00 in0.0 mm 0.00 in0.0 mm 0.00 in0.0 mm
01:59 AM 19.6°F-6.9°C 18.6°F-7.4°C 96% Calm Calm -- 30.08 in1018.6 mb 0.00 in0.0 mm 0.00 in0.0 mm 0.00 in0.0 mm
01:54 AM 20.0°F-6.7°C 19.0°F-7.2°C 96% Calm Calm -- 30.07 in1018.3 mb 0.00 in0.0 mm 0.00 in0.0 mm 0.00 in0.0 mm
01:49 AM 19.7°F-6.8°C 18.7°F-7.4°C 96% Calm Calm -- 30.07 in1018.3 mb 0.00 in0.0 mm 0.00 in0.0 mm 0.00 in0.0 mm
01:44 AM 19.3°F-7.1°C 18.4°F-7.6°C 96% Calm Calm -- 30.07 in1018.3 mb 0.00 in0.0 mm 0.00 in0.0 mm 0.00 in0.0 mm
01:39 AM 19.6°F-6.9°C 18.6°F-7.4°C 96% Calm Calm -- 30.07 in1018.3 mb 0.00 in0.0 mm 0.00 in0.0 mm 0.00 in0.0 mm
01:34 AM 20.1°F-6.6°C 19.1°F-7.2°C 96% Calm Calm -- 30.08 in1018.6 mb 0.00 in0.0 mm 0.00 in0.0 mm 0.00 in0.0 mm
01:29 AM 20.5°F-6.4°C 19.5°F-6.9°C 96% Calm Calm -- 30.08 in1018.6 mb 0.00 in0.0 mm 0.00 in0.0 mm 0.00 in0.0 mm
01:24 AM 20.8°F-6.2°C 19.8°F-6.8°C 96% Calm Calm -- 30.08 in1018.6 mb 0.00 in0.0 mm 0.00 in0.0 mm 0.00 in0.0 mm
01:19 AM 20.9°F-6.2°C 20.2°F-6.6°C 97% Calm Calm -- 30.08 in1018.6 mb 0.00 in0.0 mm 0.00 in0.0 mm 0.00 in0.0 mm
01:14 AM 20.6°F-6.3°C 19.6°F-6.9°C 96% Calm Calm -- 30.08 in1018.6 mb 0.00 in0.0 mm 0.00 in0.0 mm 0.00 in0.0 mm
01:09 AM 20.5°F-6.4°C 19.5°F-6.9°C 96% Calm Calm -- 30.08 in1018.6 mb 0.00 in0.0 mm 0.00 in0.0 mm 0.00 in0.0 mm
01:04 AM 20.4°F-6.4°C 19.4°F-7.0°C 96% Calm Calm -- 30.08 in1018.6 mb 0.00 in0.0 mm 0.00 in0.0 mm 0.00 in0.0 mm
12:59 AM 20.6°F-6.3°C 19.6°F-6.9°C 96% Calm Calm -- 30.08 in1018.6 mb 0.00 in0.0 mm 0.00 in0.0 mm 0.00 in0.0 mm
12:54 AM 20.9°F-6.2°C 19.9°F-6.7°C 96% Calm Calm -- 30.08 in1018.6 mb 0.00 in0.0 mm 0.00 in0.0 mm 0.00 in0.0 mm
12:49 AM 21.1°F-6.1°C 20.1°F-6.6°C 96% Calm Calm -- 30.08 in1018.6 mb 0.00 in0.0 mm 0.00 in0.0 mm 0.00 in0.0 mm
12:44 AM 21.7°F-5.7°C 21.0°F-6.1°C 97% Calm Calm -- 30.08 in1018.6 mb 0.00 in0.0 mm 0.00 in0.0 mm 0.00 in0.0 mm
12:39 AM 22.0°F-5.6°C 21.3°F-5.9°C 97% Calm Calm -- 30.08 in1018.6 mb 0.00 in0.0 mm 0.00 in0.0 mm 0.00 in0.0 mm
12:34 AM 22.1°F-5.5°C 21.4°F-5.9°C 97% Calm Calm -- 30.09 in1019.0 mb 0.00 in0.0 mm 0.00 in0.0 mm 0.00 in0.0 mm
12:29 AM 22.3°F-5.4°C 21.6°F-5.8°C 97% Calm Calm -- 30.09 in1019.0 mb 0.00 in0.0 mm 0.00 in0.0 mm 0.00 in0.0 mm
12:24 AM 22.5°F-5.3°C 21.8°F-5.7°C 97% Calm Calm -- 30.09 in1019.0 mb 0.00 in0.0 mm 0.00 in0.0 mm 0.00 in0.0 mm
12:19 AM 22.6°F-5.2°C 21.9°F-5.6°C 97% 0.2 mph SSW0.3 kmh SSW 0.7 mph1.1 kmh 30.09 in1019.0 mb 0.00 in0.0 mm 0.00 in0.0 mm 0.00 in0.0 mm
12:14 AM 22.6°F-5.2°C 21.9°F-5.6°C 97% Calm Calm 0.3 mph0.5 kmh 30.09 in1019.0 mb 0.00 in0.0 mm 0.00 in0.0 mm 0.00 in0.0 mm
12:09 AM 22.6°F-5.2°C 21.9°F-5.6°C 97% Calm Calm -- 30.09 in1019.0 mb 0.00 in0.0 mm 0.00 in0.0 mm 0.00 in0.0 mm
12:04 AM 22.6°F-5.2°C 21.9°F-5.6°C 97% Calm Calm -- 30.09 in1019.0 mb 0.00 in0.0 mm 0.00 in0.0 mm 0.00 in0.0 mm
12:00 AM 22.6°F-5.2°C 21.9°F-5.6°C 97% 0.3 mph S0.5 kmh S 1.6 mph2.6 kmh 30.08 in1018.6 mb 0.00 in0.0 mm 0.00 in0.0 mm 0.00 in0.0 mm